LTBJ/ADB METAR and TAF weather

Enter ICAO airport designator
Station Type Date Time Source
LTBJ METAR 2019/08/24 17:20 UTC NOAA

LTBJ 241720Z 36014KT CAVOK 34/15 Q1010 NOSIG


Station Type Date Time Source
LTBJ Decoded METAR 2019/08/24 17:20 UTC NOAA

Station name not available
Aug 24, 2019 - 01:20 PM EDT / 2019.08.24 1720 UTC
Wind: from the N (360 degrees) at 16 MPH (14 KT):0
Visibility: greater than 7 mile(s):0
Temperature: 93 F (34 C)
Dew Point: 59 F (15 C)
Relative Humidity: 32%
Pressure (altimeter): 29.83 in. Hg (1010 hPa)
ob: LTBJ 241720Z 36014KT CAVOK 34/15 Q1010 NOSIG
cycle: 17

Station Type Date Time Source
LTBJ TAF 2019/08/24 18:03 UTC NOAA

TAF LTBJ 241640Z 2418/2518 01018G35KT CAVOK
BECMG 2419/2421 35012KT

Example: see airport list